sensor_id;sensor_type;location;lat;lon;timestamp;P1;durP1;ratioP1;P2;durP2;ratioP2
68872;SDS011;55907;50.806;12.882;2022-12-07T00:00:09;12.1;;;10.8;;
68872;SDS011;55907;50.806;12.882;2022-12-07T00:03:11;13.4;;;11.1;;
68872;SDS011;55907;50.806;12.882;2022-12-07T00:06:13;14.5;;;11.5;;
68872;SDS011;55907;50.806;12.882;2022-12-07T00:09:15;15.1;;;12.4;;
68872;SDS011;55907;50.806;12.882;2022-12-07T00:12:15;14.9;;;12.7;;
68872;SDS011;55907;50.806;12.882;2022-12-07T00:15:17;14.0;;;11.7;;
68872;SDS011;55907;50.806;12.882;2022-12-07T00:18:19;15.6;;;13.1;;
68872;SDS011;55907;50.806;12.882;2022-12-07T00:21:21;12.1;;;10.8;;
68872;SDS011;55907;50.806;12.882;2022-12-07T00:24:22;13.4;;;12.0;;
68872;SDS011;55907;50.806;12.882;2022-12-07T00:27:23;15.0;;;13.0;;
68872;SDS011;55907;50.806;12.882;2022-12-07T00:30:25;14.5;;;12.9;;
68872;SDS011;55907;50.806;12.882;2022-12-07T00:33:26;15.7;;;12.8;;
68872;SDS011;55907;50.806;12.882;2022-12-07T00:36:28;14.2;;;12.2;;
68872;SDS011;55907;50.806;12.882;2022-12-07T00:39:30;14.1;;;12.3;;
68872;SDS011;55907;50.806;12.882;2022-12-07T00:42:31;16.1;;;13.3;;
68872;SDS011;55907;50.806;12.882;2022-12-07T00:45:33;17.1;;;12.7;;
68872;SDS011;55907;50.806;12.882;2022-12-07T00:48:34;15.4;;;12.6;;
68872;SDS011;55907;50.806;12.882;2022-12-07T00:51:36;15.6;;;12.4;;
68872;SDS011;55907;50.806;12.882;2022-12-07T00:54:38;16.3;;;12.9;;
68872;SDS011;55907;50.806;12.882;2022-12-07T00:57:39;17.0;;;12.9;;
68872;SDS011;55907;50.806;12.882;2022-12-07T01:00:41;14.8;;;12.9;;
68872;SDS011;55907;50.806;12.882;2022-12-07T01:03:42;15.7;;;12.6;;
68872;SDS011;55907;50.806;12.882;2022-12-07T01:06:44;16.4;;;13.0;;
68872;SDS011;55907;50.806;12.882;2022-12-07T01:09:46;16.3;;;13.5;;
68872;SDS011;55907;50.806;12.882;2022-12-07T01:12:47;15.6;;;12.9;;
68872;SDS011;55907;50.806;12.882;2022-12-07T01:15:49;14.9;;;12.5;;
68872;SDS011;55907;50.806;12.882;2022-12-07T01:18:52;15.3;;;12.6;;
68872;SDS011;55907;50.806;12.882;2022-12-07T01:21:52;17.2;;;14.0;;
68872;SDS011;55907;50.806;12.882;2022-12-07T01:24:54;16.1;;;13.1;;
68872;SDS011;55907;50.806;12.882;2022-12-07T01:30:57;15.6;;;13.1;;
68872;SDS011;55907;50.806;12.882;2022-12-07T01:33:59;15.4;;;12.9;;
68872;SDS011;55907;50.806;12.882;2022-12-07T01:37:00;15.6;;;12.6;;
68872;SDS011;55907;50.806;12.882;2022-12-07T01:40:02;16.7;;;13.6;;
68872;SDS011;55907;50.806;12.882;2022-12-07T01:43:04;16.0;;;13.3;;
68872;SDS011;55907;50.806;12.882;2022-12-07T01:46:05;16.5;;;12.7;;
68872;SDS011;55907;50.806;12.882;2022-12-07T01:49:08;16.0;;;13.2;;
68872;SDS011;55907;50.806;12.882;2022-12-07T01:52:11;16.9;;;13.4;;
68872;SDS011;55907;50.806;12.882;2022-12-07T01:55:11;14.3;;;12.3;;
68872;SDS011;55907;50.806;12.882;2022-12-07T01:58:11;13.7;;;12.2;;
68872;SDS011;55907;50.806;12.882;2022-12-07T02:01:13;13.0;;;11.5;;
68872;SDS011;55907;50.806;12.882;2022-12-07T02:07:16;11.7;;;10.4;;
68872;SDS011;55907;50.806;12.882;2022-12-07T02:10:19;13.2;;;11.3;;
68872;SDS011;55907;50.806;12.882;2022-12-07T02:13:20;12.8;;;10.8;;
68872;SDS011;55907;50.806;12.882;2022-12-07T02:16:24;12.6;;;10.9;;
68872;SDS011;55907;50.806;12.882;2022-12-07T02:22:30;13.2;;;10.6;;
68872;SDS011;55907;50.806;12.882;2022-12-07T02:25:29;12.0;;;10.3;;
68872;SDS011;55907;50.806;12.882;2022-12-07T02:28:28;11.7;;;9.9;;
68872;SDS011;55907;50.806;12.882;2022-12-07T02:31:29;11.3;;;9.6;;
68872;SDS011;55907;50.806;12.882;2022-12-07T02:34:34;12.3;;;9.3;;
68872;SDS011;55907;50.806;12.882;2022-12-07T02:37:34;11.1;;;9.5;;
68872;SDS011;55907;50.806;12.882;2022-12-07T02:40:35;11.5;;;8.9;;
68872;SDS011;55907;50.806;12.882;2022-12-07T02:43:36;13.8;;;9.1;;
68872;SDS011;55907;50.806;12.882;2022-12-07T02:46:42;10.8;;;8.2;;
68872;SDS011;55907;50.806;12.882;2022-12-07T02:49:38;10.6;;;8.2;;
68872;SDS011;55907;50.806;12.882;2022-12-07T02:52:40;9.5;;;8.0;;
68872;SDS011;55907;50.806;12.882;2022-12-07T02:55:42;10.3;;;7.7;;
68872;SDS011;55907;50.806;12.882;2022-12-07T02:58:46;11.3;;;8.4;;
68872;SDS011;55907;50.806;12.882;2022-12-07T03:01:47;9.8;;;7.2;;
68872;SDS011;55907;50.806;12.882;2022-12-07T03:04:49;10.3;;;7.0;;
68872;SDS011;55907;50.806;12.882;2022-12-07T03:07:49;9.4;;;6.8;;
68872;SDS011;55907;50.806;12.882;2022-12-07T03:10:50;8.5;;;7.1;;
68872;SDS011;55907;50.806;12.882;2022-12-07T03:13:53;8.9;;;6.6;;
68872;SDS011;55907;50.806;12.882;2022-12-07T03:16:53;8.2;;;6.8;;
68872;SDS011;55907;50.806;12.882;2022-12-07T03:19:56;8.0;;;6.5;;
68872;SDS011;55907;50.806;12.882;2022-12-07T03:22:56;8.9;;;6.5;;
68872;SDS011;55907;50.806;12.882;2022-12-07T03:25:58;8.0;;;5.9;;
68872;SDS011;55907;50.806;12.882;2022-12-07T03:29:00;7.5;;;6.3;;
68872;SDS011;55907;50.806;12.882;2022-12-07T03:32:02;7.7;;;6.5;;
68872;SDS011;55907;50.806;12.882;2022-12-07T03:35:03;8.0;;;6.2;;
68872;SDS011;55907;50.806;12.882;2022-12-07T03:38:05;7.1;;;6.1;;
68872;SDS011;55907;50.806;12.882;2022-12-07T03:41:06;7.5;;;5.7;;
68872;SDS011;55907;50.806;12.882;2022-12-07T03:44:07;7.0;;;6.0;;
68872;SDS011;55907;50.806;12.882;2022-12-07T03:47:11;7.9;;;5.6;;
68872;SDS011;55907;50.806;12.882;2022-12-07T03:50:11;7.1;;;5.8;;
68872;SDS011;55907;50.806;12.882;2022-12-07T03:53:14;6.8;;;5.6;;
68872;SDS011;55907;50.806;12.882;2022-12-07T03:56:14;7.6;;;5.5;;
68872;SDS011;55907;50.806;12.882;2022-12-07T03:59:16;6.0;;;5.2;;
68872;SDS011;55907;50.806;12.882;2022-12-07T04:02:17;7.8;;;5.6;;
68872;SDS011;55907;50.806;12.882;2022-12-07T04:05:19;7.7;;;5.8;;
68872;SDS011;55907;50.806;12.882;2022-12-07T04:08:20;6.8;;;5.3;;
68872;SDS011;55907;50.806;12.882;2022-12-07T04:11:22;6.9;;;5.5;;
68872;SDS011;55907;50.806;12.882;2022-12-07T04:14:23;8.9;;;5.1;;
68872;SDS011;55907;50.806;12.882;2022-12-07T04:17:25;6.3;;;5.4;;
68872;SDS011;55907;50.806;12.882;2022-12-07T04:20:26;5.9;;;5.3;;
68872;SDS011;55907;50.806;12.882;2022-12-07T04:23:28;5.7;;;5.0;;
68872;SDS011;55907;50.806;12.882;2022-12-07T04:26:30;6.5;;;5.0;;
68872;SDS011;55907;50.806;12.882;2022-12-07T04:29:31;6.0;;;5.3;;
68872;SDS011;55907;50.806;12.882;2022-12-07T04:32:33;6.2;;;5.3;;
68872;SDS011;55907;50.806;12.882;2022-12-07T04:35:34;5.2;;;4.7;;
68872;SDS011;55907;50.806;12.882;2022-12-07T04:41:38;5.4;;;4.6;;
68872;SDS011;55907;50.806;12.882;2022-12-07T04:44:39;4.9;;;4.4;;
68872;SDS011;55907;50.806;12.882;2022-12-07T04:47:41;5.0;;;4.5;;
68872;SDS011;55907;50.806;12.882;2022-12-07T04:50:42;6.3;;;5.0;;
68872;SDS011;55907;50.806;12.882;2022-12-07T04:53:44;6.1;;;5.0;;
68872;SDS011;55907;50.806;12.882;2022-12-07T04:56:46;5.6;;;4.9;;
68872;SDS011;55907;50.806;12.882;2022-12-07T04:59:47;5.1;;;4.6;;
68872;SDS011;55907;50.806;12.882;2022-12-07T05:02:49;4.9;;;4.3;;
68872;SDS011;55907;50.806;12.882;2022-12-07T05:05:50;5.9;;;4.6;;
68872;SDS011;55907;50.806;12.882;2022-12-07T05:11:54;5.4;;;4.6;;
68872;SDS011;55907;50.806;12.882;2022-12-07T05:14:55;5.9;;;5.0;;
68872;SDS011;55907;50.806;12.882;2022-12-07T05:17:57;5.3;;;4.8;;
68872;SDS011;55907;50.806;12.882;2022-12-07T05:20:58;6.9;;;5.0;;
68872;SDS011;55907;50.806;12.882;2022-12-07T05:24:00;6.3;;;4.9;;
68872;SDS011;55907;50.806;12.882;2022-12-07T05:27:02;6.4;;;5.8;;
68872;SDS011;55907;50.806;12.882;2022-12-07T05:30:04;6.2;;;5.6;;
68872;SDS011;55907;50.806;12.882;2022-12-07T05:33:05;7.3;;;6.3;;
68872;SDS011;55907;50.806;12.882;2022-12-07T05:36:07;6.2;;;5.6;;
68872;SDS011;55907;50.806;12.882;2022-12-07T05:39:08;6.3;;;5.7;;
68872;SDS011;55907;50.806;12.882;2022-12-07T05:42:10;7.5;;;6.4;;
68872;SDS011;55907;50.806;12.882;2022-12-07T05:45:11;7.8;;;7.0;;
68872;SDS011;55907;50.806;12.882;2022-12-07T05:48:13;6.5;;;5.8;;
68872;SDS011;55907;50.806;12.882;2022-12-07T05:51:14;7.3;;;6.0;;
68872;SDS011;55907;50.806;12.882;2022-12-07T05:54:16;6.3;;;5.7;;
68872;SDS011;55907;50.806;12.882;2022-12-07T05:57:18;8.1;;;6.6;;
68872;SDS011;55907;50.806;12.882;2022-12-07T06:00:19;7.8;;;6.9;;
68872;SDS011;55907;50.806;12.882;2022-12-07T06:03:21;8.0;;;7.0;;
68872;SDS011;55907;50.806;12.882;2022-12-07T06:06:22;9.5;;;7.9;;
68872;SDS011;55907;50.806;12.882;2022-12-07T06:09:24;9.3;;;7.6;;
68872;SDS011;55907;50.806;12.882;2022-12-07T06:12:25;9.2;;;6.9;;
68872;SDS011;55907;50.806;12.882;2022-12-07T06:18:29;9.7;;;7.6;;
68872;SDS011;55907;50.806;12.882;2022-12-07T06:21:30;10.4;;;7.8;;
68872;SDS011;55907;50.806;12.882;2022-12-07T06:24:32;11.2;;;7.4;;
68872;SDS011;55907;50.806;12.882;2022-12-07T06:27:34;11.0;;;8.3;;
68872;SDS011;55907;50.806;12.882;2022-12-07T06:30:35;12.2;;;8.4;;
68872;SDS011;55907;50.806;12.882;2022-12-07T06:33:37;11.6;;;8.5;;
68872;SDS011;55907;50.806;12.882;2022-12-07T06:36:38;10.1;;;8.7;;
68872;SDS011;55907;50.806;12.882;2022-12-07T06:42:41;12.0;;;8.2;;
68872;SDS011;55907;50.806;12.882;2022-12-07T06:45:43;10.0;;;8.8;;
68872;SDS011;55907;50.806;12.882;2022-12-07T06:51:46;11.3;;;9.5;;
68872;SDS011;55907;50.806;12.882;2022-12-07T06:54:48;13.4;;;8.9;;
68872;SDS011;55907;50.806;12.882;2022-12-07T06:57:49;10.6;;;9.0;;
68872;SDS011;55907;50.806;12.882;2022-12-07T07:00:51;10.4;;;9.0;;
68872;SDS011;55907;50.806;12.882;2022-12-07T07:03:53;9.8;;;8.5;;
68872;SDS011;55907;50.806;12.882;2022-12-07T07:06:54;12.5;;;9.1;;
68872;SDS011;55907;50.806;12.882;2022-12-07T07:09:56;9.7;;;8.7;;
68872;SDS011;55907;50.806;12.882;2022-12-07T07:15:59;11.8;;;9.7;;
68872;SDS011;55907;50.806;12.882;2022-12-07T07:19:01;10.5;;;9.0;;
68872;SDS011;55907;50.806;12.882;2022-12-07T07:22:03;11.2;;;9.3;;
68872;SDS011;55907;50.806;12.882;2022-12-07T07:28:06;12.2;;;9.5;;
68872;SDS011;55907;50.806;12.882;2022-12-07T07:31:07;12.1;;;9.5;;
68872;SDS011;55907;50.806;12.882;2022-12-07T07:34:09;12.3;;;10.0;;
68872;SDS011;55907;50.806;12.882;2022-12-07T07:37:10;10.8;;;9.1;;
68872;SDS011;55907;50.806;12.882;2022-12-07T07:40:12;12.5;;;8.9;;
68872;SDS011;55907;50.806;12.882;2022-12-07T07:43:13;16.6;;;12.0;;
68872;SDS011;55907;50.806;12.882;2022-12-07T07:46:15;10.5;;;9.4;;
68872;SDS011;55907;50.806;12.882;2022-12-07T07:49:17;11.7;;;9.6;;
68872;SDS011;55907;50.806;12.882;2022-12-07T07:52:18;10.4;;;9.3;;
68872;SDS011;55907;50.806;12.882;2022-12-07T07:55:20;10.5;;;8.9;;
68872;SDS011;55907;50.806;12.882;2022-12-07T07:58:21;13.0;;;11.6;;
68872;SDS011;55907;50.806;12.882;2022-12-07T08:01:23;11.4;;;9.8;;
68872;SDS011;55907;50.806;12.882;2022-12-07T08:04:24;9.7;;;8.7;;
68872;SDS011;55907;50.806;12.882;2022-12-07T08:07:26;10.7;;;9.6;;
68872;SDS011;55907;50.806;12.882;2022-12-07T08:10:28;11.6;;;9.7;;
68872;SDS011;55907;50.806;12.882;2022-12-07T08:16:31;11.4;;;9.6;;
68872;SDS011;55907;50.806;12.882;2022-12-07T08:19:32;11.6;;;10.4;;
68872;SDS011;55907;50.806;12.882;2022-12-07T08:22:34;9.9;;;8.8;;
68872;SDS011;55907;50.806;12.882;2022-12-07T08:25:35;10.3;;;9.3;;
68872;SDS011;55907;50.806;12.882;2022-12-07T08:28:37;10.2;;;9.2;;
68872;SDS011;55907;50.806;12.882;2022-12-07T08:31:38;12.6;;;9.6;;
68872;SDS011;55907;50.806;12.882;2022-12-07T08:34:40;10.7;;;9.6;;
68872;SDS011;55907;50.806;12.882;2022-12-07T08:37:42;10.0;;;8.7;;
68872;SDS011;55907;50.806;12.882;2022-12-07T08:43:45;9.9;;;8.9;;
68872;SDS011;55907;50.806;12.882;2022-12-07T08:46:47;10.7;;;9.7;;
68872;SDS011;55907;50.806;12.882;2022-12-07T08:49:48;9.9;;;8.9;;
68872;SDS011;55907;50.806;12.882;2022-12-07T08:52:50;9.8;;;8.7;;
68872;SDS011;55907;50.806;12.882;2022-12-07T08:55:51;9.4;;;8.5;;
68872;SDS011;55907;50.806;12.882;2022-12-07T08:58:52;8.4;;;7.6;;
68872;SDS011;55907;50.806;12.882;2022-12-07T09:01:54;9.5;;;8.6;;
68872;SDS011;55907;50.806;12.882;2022-12-07T09:04:56;11.3;;;10.1;;
68872;SDS011;55907;50.806;12.882;2022-12-07T09:07:57;9.7;;;8.8;;
68872;SDS011;55907;50.806;12.882;2022-12-07T09:10:59;10.2;;;9.3;;
68872;SDS011;55907;50.806;12.882;2022-12-07T09:14:00;9.7;;;8.8;;
68872;SDS011;55907;50.806;12.882;2022-12-07T09:17:05;9.4;;;8.4;;
68872;SDS011;55907;50.806;12.882;2022-12-07T09:20:04;8.4;;;7.6;;
68872;SDS011;55907;50.806;12.882;2022-12-07T09:23:05;9.4;;;7.8;;
68872;SDS011;55907;50.806;12.882;2022-12-07T09:29:08;9.2;;;8.4;;
68872;SDS011;55907;50.806;12.882;2022-12-07T09:32:09;9.5;;;8.6;;
68872;SDS011;55907;50.806;12.882;2022-12-07T09:35:11;9.4;;;8.5;;
68872;SDS011;55907;50.806;12.882;2022-12-07T09:38:12;8.7;;;7.9;;
68872;SDS011;55907;50.806;12.882;2022-12-07T09:41:14;8.8;;;8.0;;
68872;SDS011;55907;50.806;12.882;2022-12-07T09:44:17;10.3;;;8.2;;
68872;SDS011;55907;50.806;12.882;2022-12-07T09:47:17;9.8;;;8.8;;
68872;SDS011;55907;50.806;12.882;2022-12-07T09:50:20;9.4;;;8.6;;
68872;SDS011;55907;50.806;12.882;2022-12-07T09:53:20;12.0;;;10.8;;
68872;SDS011;55907;50.806;12.882;2022-12-07T09:56:22;12.5;;;11.2;;
68872;SDS011;55907;50.806;12.882;2022-12-07T09:59:23;10.0;;;9.1;;
68872;SDS011;55907;50.806;12.882;2022-12-07T10:02:28;10.6;;;9.6;;
68872;SDS011;55907;50.806;12.882;2022-12-07T10:05:27;10.8;;;9.7;;
68872;SDS011;55907;50.806;12.882;2022-12-07T10:08:28;11.1;;;10.0;;
68872;SDS011;55907;50.806;12.882;2022-12-07T10:11:29;10.4;;;9.3;;
68872;SDS011;55907;50.806;12.882;2022-12-07T10:17:34;10.2;;;9.1;;
68872;SDS011;55907;50.806;12.882;2022-12-07T10:20:34;10.4;;;9.5;;
68872;SDS011;55907;50.806;12.882;2022-12-07T10:23:36;10.1;;;9.1;;
68872;SDS011;55907;50.806;12.882;2022-12-07T10:26:38;11.9;;;10.6;;
68872;SDS011;55907;50.806;12.882;2022-12-07T10:29:39;11.6;;;10.4;;
68872;SDS011;55907;50.806;12.882;2022-12-07T10:32:40;11.2;;;10.1;;
68872;SDS011;55907;50.806;12.882;2022-12-07T10:35:42;11.1;;;9.2;;
68872;SDS011;55907;50.806;12.882;2022-12-07T10:38:44;10.5;;;9.5;;
68872;SDS011;55907;50.806;12.882;2022-12-07T10:41:52;10.8;;;9.8;;
68872;SDS011;55907;50.806;12.882;2022-12-07T10:44:47;10.7;;;9.6;;
68872;SDS011;55907;50.806;12.882;2022-12-07T10:47:48;10.3;;;9.3;;
68872;SDS011;55907;50.806;12.882;2022-12-07T10:50:52;8.9;;;8.0;;
68872;SDS011;55907;50.806;12.882;2022-12-07T10:53:53;10.6;;;9.5;;
68872;SDS011;55907;50.806;12.882;2022-12-07T10:56:56;11.4;;;10.2;;
68872;SDS011;55907;50.806;12.882;2022-12-07T10:59:58;10.2;;;9.1;;
68872;SDS011;55907;50.806;12.882;2022-12-07T11:03:03;11.0;;;9.9;;
68872;SDS011;55907;50.806;12.882;2022-12-07T11:06:00;12.1;;;9.2;;
68872;SDS011;55907;50.806;12.882;2022-12-07T11:09:02;9.8;;;8.9;;
68872;SDS011;55907;50.806;12.882;2022-12-07T11:12:02;9.4;;;8.1;;
68872;SDS011;55907;50.806;12.882;2022-12-07T11:15:03;9.1;;;8.2;;
68872;SDS011;55907;50.806;12.882;2022-12-07T11:18:06;10.5;;;8.7;;
68872;SDS011;55907;50.806;12.882;2022-12-07T11:21:06;9.6;;;8.7;;
68872;SDS011;55907;50.806;12.882;2022-12-07T11:24:08;9.3;;;8.4;;
68872;SDS011;55907;50.806;12.882;2022-12-07T11:27:11;11.2;;;8.6;;
68872;SDS011;55907;50.806;12.882;2022-12-07T11:30:12;9.0;;;7.7;;
68872;SDS011;55907;50.806;12.882;2022-12-07T11:33:13;10.7;;;8.9;;
68872;SDS011;55907;50.806;12.882;2022-12-07T11:36:17;9.2;;;8.3;;
68872;SDS011;55907;50.806;12.882;2022-12-07T11:39:16;9.6;;;8.6;;
68872;SDS011;55907;50.806;12.882;2022-12-07T11:42:18;8.8;;;7.9;;
68872;SDS011;55907;50.806;12.882;2022-12-07T11:45:19;8.7;;;7.8;;
68872;SDS011;55907;50.806;12.882;2022-12-07T11:48:20;9.9;;;8.8;;
68872;SDS011;55907;50.806;12.882;2022-12-07T11:51:20;8.1;;;7.3;;
68872;SDS011;55907;50.806;12.882;2022-12-07T11:54:23;9.7;;;8.0;;
68872;SDS011;55907;50.806;12.882;2022-12-07T11:57:25;9.4;;;7.8;;
68872;SDS011;55907;50.806;12.882;2022-12-07T12:00:25;8.3;;;7.2;;
68872;SDS011;55907;50.806;12.882;2022-12-07T12:03:28;8.2;;;7.4;;
68872;SDS011;55907;50.806;12.882;2022-12-07T12:06:28;7.5;;;6.8;;
68872;SDS011;55907;50.806;12.882;2022-12-07T12:09:31;8.4;;;7.6;;
68872;SDS011;55907;50.806;12.882;2022-12-07T12:12:37;7.9;;;7.1;;
68872;SDS011;55907;50.806;12.882;2022-12-07T12:15:37;7.2;;;6.5;;
68872;SDS011;55907;50.806;12.882;2022-12-07T12:18:38;8.5;;;7.1;;
68872;SDS011;55907;50.806;12.882;2022-12-07T12:21:36;6.8;;;6.2;;
68872;SDS011;55907;50.806;12.882;2022-12-07T12:24:37;7.5;;;6.7;;
68872;SDS011;55907;50.806;12.882;2022-12-07T12:27:39;8.1;;;6.5;;
68872;SDS011;55907;50.806;12.882;2022-12-07T12:30:40;6.9;;;6.3;;
68872;SDS011;55907;50.806;12.882;2022-12-07T12:33:43;7.2;;;6.5;;
68872;SDS011;55907;50.806;12.882;2022-12-07T12:36:45;6.7;;;6.0;;
68872;SDS011;55907;50.806;12.882;2022-12-07T12:42:47;6.9;;;6.3;;
68872;SDS011;55907;50.806;12.882;2022-12-07T12:45:48;8.1;;;6.7;;
68872;SDS011;55907;50.806;12.882;2022-12-07T12:48:50;8.2;;;7.4;;
68872;SDS011;55907;50.806;12.882;2022-12-07T12:51:51;7.3;;;6.4;;
68872;SDS011;55907;50.806;12.882;2022-12-07T13:03:57;8.1;;;7.3;;
68872;SDS011;55907;50.806;12.882;2022-12-07T13:06:59;7.7;;;7.0;;
68872;SDS011;55907;50.806;12.882;2022-12-07T13:10:01;7.5;;;6.5;;
68872;SDS011;55907;50.806;12.882;2022-12-07T13:13:03;7.4;;;6.0;;
68872;SDS011;55907;50.806;12.882;2022-12-07T13:25:09;7.4;;;6.7;;
68872;SDS011;55907;50.806;12.882;2022-12-07T13:28:13;7.5;;;5.8;;
68872;SDS011;55907;50.806;12.882;2022-12-07T13:31:13;6.2;;;5.6;;
68872;SDS011;55907;50.806;12.882;2022-12-07T13:37:15;6.3;;;5.8;;
68872;SDS011;55907;50.806;12.882;2022-12-07T13:40:17;7.7;;;6.9;;
68872;SDS011;55907;50.806;12.882;2022-12-07T13:43:17;10.4;;;7.0;;
68872;SDS011;55907;50.806;12.882;2022-12-07T13:46:20;7.1;;;6.4;;
68872;SDS011;55907;50.806;12.882;2022-12-07T13:49:22;7.5;;;6.6;;
68872;SDS011;55907;50.806;12.882;2022-12-07T13:52:23;7.8;;;6.6;;
68872;SDS011;55907;50.806;12.882;2022-12-07T13:55:24;7.0;;;6.5;;
68872;SDS011;55907;50.806;12.882;2022-12-07T13:58:25;7.6;;;6.8;;
68872;SDS011;55907;50.806;12.882;2022-12-07T14:01:27;6.5;;;6.0;;
68872;SDS011;55907;50.806;12.882;2022-12-07T14:04:30;7.5;;;6.8;;
68872;SDS011;55907;50.806;12.882;2022-12-07T14:07:30;7.1;;;6.4;;
68872;SDS011;55907;50.806;12.882;2022-12-07T14:10:32;6.9;;;6.2;;
68872;SDS011;55907;50.806;12.882;2022-12-07T14:13:33;7.0;;;6.3;;
68872;SDS011;55907;50.806;12.882;2022-12-07T14:16:35;7.2;;;6.5;;
68872;SDS011;55907;50.806;12.882;2022-12-07T14:19:41;7.3;;;6.6;;
68872;SDS011;55907;50.806;12.882;2022-12-07T14:22:38;6.7;;;6.1;;
68872;SDS011;55907;50.806;12.882;2022-12-07T14:25:47;6.4;;;5.8;;
68872;SDS011;55907;50.806;12.882;2022-12-07T14:28:41;6.7;;;6.1;;
68872;SDS011;55907;50.806;12.882;2022-12-07T14:31:42;6.2;;;5.7;;
68872;SDS011;55907;50.806;12.882;2022-12-07T14:34:52;6.6;;;6.0;;
68872;SDS011;55907;50.806;12.882;2022-12-07T14:37:47;6.4;;;5.9;;
68872;SDS011;55907;50.806;12.882;2022-12-07T14:40:47;11.6;;;9.6;;
68872;SDS011;55907;50.806;12.882;2022-12-07T14:43:48;8.4;;;7.6;;
68872;SDS011;55907;50.806;12.882;2022-12-07T14:46:50;5.9;;;5.3;;
68872;SDS011;55907;50.806;12.882;2022-12-07T14:49:51;6.3;;;5.7;;
68872;SDS011;55907;50.806;12.882;2022-12-07T14:52:54;9.2;;;5.2;;
68872;SDS011;55907;50.806;12.882;2022-12-07T14:55:55;6.9;;;4.9;;
68872;SDS011;55907;50.806;12.882;2022-12-07T14:58:56;6.4;;;5.8;;
68872;SDS011;55907;50.806;12.882;2022-12-07T15:01:58;5.2;;;4.8;;
68872;SDS011;55907;50.806;12.882;2022-12-07T15:04:59;6.8;;;6.2;;
68872;SDS011;55907;50.806;12.882;2022-12-07T15:08:01;5.3;;;4.8;;
68872;SDS011;55907;50.806;12.882;2022-12-07T15:11:02;6.8;;;5.5;;
68872;SDS011;55907;50.806;12.882;2022-12-07T15:14:04;5.6;;;5.1;;
68872;SDS011;55907;50.806;12.882;2022-12-07T15:17:05;5.9;;;5.3;;
68872;SDS011;55907;50.806;12.882;2022-12-07T15:20:08;6.8;;;5.9;;
68872;SDS011;55907;50.806;12.882;2022-12-07T15:23:09;4.7;;;4.3;;
68872;SDS011;55907;50.806;12.882;2022-12-07T15:26:10;5.5;;;5.0;;
68872;SDS011;55907;50.806;12.882;2022-12-07T15:29:12;5.8;;;5.1;;
68872;SDS011;55907;50.806;12.882;2022-12-07T15:32:13;5.2;;;4.7;;
68872;SDS011;55907;50.806;12.882;2022-12-07T15:35:15;8.4;;;5.5;;
68872;SDS011;55907;50.806;12.882;2022-12-07T15:38:16;7.1;;;5.4;;
68872;SDS011;55907;50.806;12.882;2022-12-07T15:41:18;5.5;;;5.0;;
68872;SDS011;55907;50.806;12.882;2022-12-07T15:44:19;5.7;;;4.9;;
68872;SDS011;55907;50.806;12.882;2022-12-07T15:50:23;6.8;;;6.2;;
68872;SDS011;55907;50.806;12.882;2022-12-07T15:53:24;5.6;;;5.1;;
68872;SDS011;55907;50.806;12.882;2022-12-07T15:56:26;5.7;;;5.2;;
68872;SDS011;55907;50.806;12.882;2022-12-07T15:59:28;5.6;;;5.1;;
68872;SDS011;55907;50.806;12.882;2022-12-07T16:02:29;6.0;;;5.5;;
68872;SDS011;55907;50.806;12.882;2022-12-07T16:05:30;7.4;;;5.0;;
68872;SDS011;55907;50.806;12.882;2022-12-07T16:08:32;8.2;;;5.4;;
68872;SDS011;55907;50.806;12.882;2022-12-07T16:11:34;5.2;;;4.8;;
68872;SDS011;55907;50.806;12.882;2022-12-07T16:14:35;5.4;;;4.9;;
68872;SDS011;55907;50.806;12.882;2022-12-07T16:17:37;5.5;;;5.0;;
68872;SDS011;55907;50.806;12.882;2022-12-07T16:20:38;8.8;;;6.7;;
68872;SDS011;55907;50.806;12.882;2022-12-07T16:23:40;10.4;;;8.8;;
68872;SDS011;55907;50.806;12.882;2022-12-07T16:26:42;10.0;;;7.8;;
68872;SDS011;55907;50.806;12.882;2022-12-07T16:29:43;7.1;;;5.8;;
68872;SDS011;55907;50.806;12.882;2022-12-07T16:32:45;7.3;;;5.5;;
68872;SDS011;55907;50.806;12.882;2022-12-07T16:35:46;6.4;;;5.8;;
68872;SDS011;55907;50.806;12.882;2022-12-07T16:38:48;8.2;;;5.8;;
68872;SDS011;55907;50.806;12.882;2022-12-07T16:41:49;5.8;;;5.3;;
68872;SDS011;55907;50.806;12.882;2022-12-07T16:44:51;8.2;;;5.5;;
68872;SDS011;55907;50.806;12.882;2022-12-07T16:47:52;7.7;;;6.9;;
68872;SDS011;55907;50.806;12.882;2022-12-07T16:50:54;7.5;;;6.4;;
68872;SDS011;55907;50.806;12.882;2022-12-07T16:53:56;8.4;;;6.1;;
68872;SDS011;55907;50.806;12.882;2022-12-07T16:56:57;6.2;;;5.6;;
68872;SDS011;55907;50.806;12.882;2022-12-07T16:59:59;8.5;;;7.0;;
68872;SDS011;55907;50.806;12.882;2022-12-07T17:03:00;6.3;;;5.8;;
68872;SDS011;55907;50.806;12.882;2022-12-07T17:06:02;8.5;;;7.0;;
68872;SDS011;55907;50.806;12.882;2022-12-07T17:09:03;6.9;;;6.2;;
68872;SDS011;55907;50.806;12.882;2022-12-07T17:12:05;6.6;;;5.8;;
68872;SDS011;55907;50.806;12.882;2022-12-07T17:15:07;11.3;;;8.7;;
68872;SDS011;55907;50.806;12.882;2022-12-07T17:18:08;8.9;;;7.1;;
68872;SDS011;55907;50.806;12.882;2022-12-07T17:21:10;7.0;;;6.3;;
68872;SDS011;55907;50.806;12.882;2022-12-07T17:27:13;6.5;;;5.8;;
68872;SDS011;55907;50.806;12.882;2022-12-07T17:30:15;6.4;;;5.8;;
68872;SDS011;55907;50.806;12.882;2022-12-07T17:33:16;7.0;;;5.8;;
68872;SDS011;55907;50.806;12.882;2022-12-07T17:39:19;7.4;;;6.3;;
68872;SDS011;55907;50.806;12.882;2022-12-07T17:42:21;6.6;;;6.1;;
68872;SDS011;55907;50.806;12.882;2022-12-07T17:48:24;6.3;;;5.7;;
68872;SDS011;55907;50.806;12.882;2022-12-07T17:51:25;5.9;;;5.3;;
68872;SDS011;55907;50.806;12.882;2022-12-07T17:54:28;8.1;;;5.8;;
68872;SDS011;55907;50.806;12.882;2022-12-07T17:57:29;6.4;;;5.8;;
68872;SDS011;55907;50.806;12.882;2022-12-07T18:00:30;6.6;;;5.8;;
68872;SDS011;55907;50.806;12.882;2022-12-07T18:03:32;7.2;;;5.7;;
68872;SDS011;55907;50.806;12.882;2022-12-07T18:06:34;6.8;;;6.2;;
68872;SDS011;55907;50.806;12.882;2022-12-07T18:09:35;7.7;;;6.0;;
68872;SDS011;55907;50.806;12.882;2022-12-07T18:12:37;7.2;;;6.5;;
68872;SDS011;55907;50.806;12.882;2022-12-07T18:15:38;7.4;;;6.7;;
68872;SDS011;55907;50.806;12.882;2022-12-07T18:18:40;6.4;;;5.8;;
68872;SDS011;55907;50.806;12.882;2022-12-07T18:21:41;9.8;;;7.9;;
68872;SDS011;55907;50.806;12.882;2022-12-07T18:24:43;7.1;;;6.4;;
68872;SDS011;55907;50.806;12.882;2022-12-07T18:27:44;6.8;;;6.1;;
68872;SDS011;55907;50.806;12.882;2022-12-07T18:33:47;7.8;;;6.8;;
68872;SDS011;55907;50.806;12.882;2022-12-07T18:36:49;6.6;;;5.9;;
68872;SDS011;55907;50.806;12.882;2022-12-07T18:39:51;6.5;;;5.9;;
68872;SDS011;55907;50.806;12.882;2022-12-07T18:42:52;7.2;;;6.5;;
68872;SDS011;55907;50.806;12.882;2022-12-07T18:45:54;7.8;;;5.9;;
68872;SDS011;55907;50.806;12.882;2022-12-07T18:48:55;6.2;;;5.6;;
68872;SDS011;55907;50.806;12.882;2022-12-07T18:51:57;7.4;;;6.6;;
68872;SDS011;55907;50.806;12.882;2022-12-07T18:54:58;7.6;;;6.8;;
68872;SDS011;55907;50.806;12.882;2022-12-07T19:01:02;7.7;;;6.9;;
68872;SDS011;55907;50.806;12.882;2022-12-07T19:04:03;7.0;;;6.3;;
68872;SDS011;55907;50.806;12.882;2022-12-07T19:07:05;8.3;;;6.6;;
68872;SDS011;55907;50.806;12.882;2022-12-07T19:10:07;7.5;;;6.1;;
68872;SDS011;55907;50.806;12.882;2022-12-07T19:13:08;11.0;;;8.3;;
68872;SDS011;55907;50.806;12.882;2022-12-07T19:16:10;9.3;;;7.5;;
68872;SDS011;55907;50.806;12.882;2022-12-07T19:19:11;7.9;;;7.1;;
68872;SDS011;55907;50.806;12.882;2022-12-07T19:22:13;10.7;;;8.7;;
68872;SDS011;55907;50.806;12.882;2022-12-07T19:25:14;12.4;;;9.7;;
68872;SDS011;55907;50.806;12.882;2022-12-07T19:28:16;7.8;;;7.0;;
68872;SDS011;55907;50.806;12.882;2022-12-07T19:31:17;8.0;;;6.5;;
68872;SDS011;55907;50.806;12.882;2022-12-07T19:34:19;7.4;;;6.6;;
68872;SDS011;55907;50.806;12.882;2022-12-07T19:37:20;7.2;;;6.5;;
68872;SDS011;55907;50.806;12.882;2022-12-07T19:40:22;7.3;;;6.4;;
68872;SDS011;55907;50.806;12.882;2022-12-07T19:43:24;7.5;;;6.5;;
68872;SDS011;55907;50.806;12.882;2022-12-07T19:46:25;6.3;;;5.7;;